sensor_id;sensor_type;location;lat;lon;timestamp;pressure;altitude;pressure_sealevel;temperature;humidity
56568;BME280;42456;49.956;20.004;2023-05-09T00:02:15;99374.38;;;1.59;81.87
56568;BME280;42456;49.956;20.004;2023-05-09T00:04:42;99372.23;;;1.55;81.77
56568;BME280;42456;49.956;20.004;2023-05-09T00:07:09;99375.26;;;1.51;81.28
56568;BME280;42456;49.956;20.004;2023-05-09T00:09:36;99374.70;;;1.46;81.85
56568;BME280;42456;49.956;20.004;2023-05-09T00:12:03;99374.34;;;1.43;82.30
56568;BME280;42456;49.956;20.004;2023-05-09T00:14:30;99371.12;;;1.40;82.05
56568;BME280;42456;49.956;20.004;2023-05-09T00:16:59;99370.06;;;1.37;82.18
56568;BME280;42456;49.956;20.004;2023-05-09T00:19:26;99367.15;;;1.34;82.68
56568;BME280;42456;49.956;20.004;2023-05-09T00:21:53;99365.69;;;1.31;82.42
56568;BME280;42456;49.956;20.004;2023-05-09T00:24:20;99363.30;;;1.27;82.23
56568;BME280;42456;49.956;20.004;2023-05-09T00:26:47;99363.23;;;1.23;81.76
56568;BME280;42456;49.956;20.004;2023-05-09T00:29:13;99357.62;;;1.20;82.42
56568;BME280;42456;49.956;20.004;2023-05-09T00:31:40;99357.71;;;1.17;82.12
56568;BME280;42456;49.956;20.004;2023-05-09T00:34:07;99358.89;;;1.13;82.21
56568;BME280;42456;49.956;20.004;2023-05-09T00:36:34;99360.09;;;1.09;82.41
56568;BME280;42456;49.956;20.004;2023-05-09T00:39:00;99357.90;;;1.05;82.41
56568;BME280;42456;49.956;20.004;2023-05-09T00:41:27;99353.06;;;1.00;82.60
56568;BME280;42456;49.956;20.004;2023-05-09T00:43:54;99353.52;;;0.96;82.00
56568;BME280;42456;49.956;20.004;2023-05-09T00:46:21;99355.44;;;0.93;82.56
56568;BME280;42456;49.956;20.004;2023-05-09T00:48:48;99352.77;;;0.89;82.46
56568;BME280;42456;49.956;20.004;2023-05-09T00:51:15;99343.02;;;0.86;82.95
56568;BME280;42456;49.956;20.004;2023-05-09T00:53:44;99345.16;;;0.84;82.79
56568;BME280;42456;49.956;20.004;2023-05-09T00:56:11;99346.11;;;0.80;82.98
56568;BME280;42456;49.956;20.004;2023-05-09T00:58:38;99339.63;;;0.75;82.40
56568;BME280;42456;49.956;20.004;2023-05-09T01:01:05;99346.07;;;0.72;83.21
56568;BME280;42456;49.956;20.004;2023-05-09T01:03:32;99344.42;;;0.69;83.10
56568;BME280;42456;49.956;20.004;2023-05-09T01:08:45;99342.66;;;0.61;82.65
56568;BME280;42456;49.956;20.004;2023-05-09T01:11:31;99342.63;;;0.57;82.58
56568;BME280;42456;49.956;20.004;2023-05-09T01:14:11;99345.63;;;0.53;83.25
56568;BME280;42456;49.956;20.004;2023-05-09T01:16:49;99340.96;;;0.49;83.20
56568;BME280;42456;49.956;20.004;2023-05-09T01:19:42;99339.99;;;0.45;82.71
56568;BME280;42456;49.956;20.004;2023-05-09T01:22:14;99338.44;;;0.42;83.46
56568;BME280;42456;49.956;20.004;2023-05-09T01:27:41;99335.89;;;0.35;83.34
56568;BME280;42456;49.956;20.004;2023-05-09T01:30:11;99334.31;;;0.33;83.32
56568;BME280;42456;49.956;20.004;2023-05-09T01:32:41;99329.97;;;0.30;83.74
56568;BME280;42456;49.956;20.004;2023-05-09T01:35:12;99329.59;;;0.27;83.83
56568;BME280;42456;49.956;20.004;2023-05-09T01:37:42;99328.95;;;0.24;83.56
56568;BME280;42456;49.956;20.004;2023-05-09T01:40:13;99326.45;;;0.21;83.51
56568;BME280;42456;49.956;20.004;2023-05-09T01:42:48;99327.61;;;0.18;83.99
56568;BME280;42456;49.956;20.004;2023-05-09T01:45:17;99324.98;;;0.15;83.64
56568;BME280;42456;49.956;20.004;2023-05-09T01:47:46;99331.56;;;0.14;84.05
56568;BME280;42456;49.956;20.004;2023-05-09T01:50:17;99325.27;;;0.11;83.92
56568;BME280;42456;49.956;20.004;2023-05-09T01:52:46;99327.81;;;0.08;83.99
56568;BME280;42456;49.956;20.004;2023-05-09T01:55:15;99322.64;;;0.06;84.19
56568;BME280;42456;49.956;20.004;2023-05-09T01:57:43;99324.09;;;0.05;84.20
56568;BME280;42456;49.956;20.004;2023-05-09T02:00:12;99321.95;;;0.03;84.29
56568;BME280;42456;49.956;20.004;2023-05-09T02:02:41;99323.27;;;-0.00;84.23
56568;BME280;42456;49.956;20.004;2023-05-09T02:05:09;99322.66;;;-0.02;84.30
56568;BME280;42456;49.956;20.004;2023-05-09T02:07:39;99322.77;;;-0.04;84.33
56568;BME280;42456;49.956;20.004;2023-05-09T02:10:09;99319.24;;;-0.06;84.47
56568;BME280;42456;49.956;20.004;2023-05-09T02:12:36;99319.94;;;-0.08;84.25
56568;BME280;42456;49.956;20.004;2023-05-09T02:15:05;99318.94;;;-0.11;84.32
56568;BME280;42456;49.956;20.004;2023-05-09T02:17:32;99318.98;;;-0.13;84.37
56568;BME280;42456;49.956;20.004;2023-05-09T02:19:59;99317.16;;;-0.15;84.52
56568;BME280;42456;49.956;20.004;2023-05-09T02:22:26;99319.34;;;-0.17;84.57
56568;BME280;42456;49.956;20.004;2023-05-09T02:24:53;99315.79;;;-0.17;84.68
56568;BME280;42456;49.956;20.004;2023-05-09T02:27:21;99313.71;;;-0.18;85.11
56568;BME280;42456;49.956;20.004;2023-05-09T02:29:50;99310.21;;;-0.19;85.09
56568;BME280;42456;49.956;20.004;2023-05-09T02:32:23;99309.45;;;-0.20;85.00
56568;BME280;42456;49.956;20.004;2023-05-09T02:34:52;99307.46;;;-0.21;85.25
56568;BME280;42456;49.956;20.004;2023-05-09T02:37:20;99306.62;;;-0.21;85.16
56568;BME280;42456;49.956;20.004;2023-05-09T02:39:47;99302.44;;;-0.21;85.18
56568;BME280;42456;49.956;20.004;2023-05-09T02:42:20;99300.64;;;-0.21;85.14
56568;BME280;42456;49.956;20.004;2023-05-09T02:44:48;99300.95;;;-0.22;85.37
56568;BME280;42456;49.956;20.004;2023-05-09T02:47:14;99299.16;;;-0.22;85.31
56568;BME280;42456;49.956;20.004;2023-05-09T02:49:41;99300.91;;;-0.21;85.38
56568;BME280;42456;49.956;20.004;2023-05-09T02:52:08;99295.48;;;-0.23;85.39
56568;BME280;42456;49.956;20.004;2023-05-09T02:54:37;99299.23;;;-0.23;85.53
56568;BME280;42456;49.956;20.004;2023-05-09T02:57:04;99298.05;;;-0.24;85.27
56568;BME280;42456;49.956;20.004;2023-05-09T02:59:31;99300.83;;;-0.22;85.70
56568;BME280;42456;49.956;20.004;2023-05-09T03:01:58;99300.81;;;-0.21;85.45
56568;BME280;42456;49.956;20.004;2023-05-09T03:04:25;99303.03;;;-0.21;85.55
56568;BME280;42456;49.956;20.004;2023-05-09T03:06:53;99299.62;;;-0.20;85.39
56568;BME280;42456;49.956;20.004;2023-05-09T03:09:20;99301.84;;;-0.20;85.63
56568;BME280;42456;49.956;20.004;2023-05-09T03:11:46;99298.36;;;-0.19;85.64
56568;BME280;42456;49.956;20.004;2023-05-09T03:14:13;99300.29;;;-0.17;85.64
56568;BME280;42456;49.956;20.004;2023-05-09T03:16:40;99302.56;;;-0.15;85.76
56568;BME280;42456;49.956;20.004;2023-05-09T03:19:07;99296.78;;;-0.13;85.75
56568;BME280;42456;49.956;20.004;2023-05-09T03:21:34;99306.73;;;-0.09;85.91
56568;BME280;42456;49.956;20.004;2023-05-09T03:24:01;99307.21;;;-0.04;85.92
56568;BME280;42456;49.956;20.004;2023-05-09T03:26:30;99305.59;;;0.01;85.87
56568;BME280;42456;49.956;20.004;2023-05-09T03:28:57;99301.10;;;0.08;85.92
56568;BME280;42456;49.956;20.004;2023-05-09T03:31:24;99306.36;;;0.15;86.03
56568;BME280;42456;49.956;20.004;2023-05-09T03:33:50;99308.35;;;0.23;85.75
56568;BME280;42456;49.956;20.004;2023-05-09T03:36:17;99304.80;;;0.28;86.01
56568;BME280;42456;49.956;20.004;2023-05-09T03:38:44;99308.13;;;0.36;86.30
56568;BME280;42456;49.956;20.004;2023-05-09T03:41:14;99306.42;;;0.45;85.95
56568;BME280;42456;49.956;20.004;2023-05-09T03:43:41;99307.06;;;0.54;86.45
56568;BME280;42456;49.956;20.004;2023-05-09T03:46:08;99307.73;;;0.63;85.74
56568;BME280;42456;49.956;20.004;2023-05-09T03:48:35;99310.23;;;0.72;86.18
56568;BME280;42456;49.956;20.004;2023-05-09T03:51:02;99306.64;;;0.80;85.89
56568;BME280;42456;49.956;20.004;2023-05-09T03:53:29;99311.20;;;0.89;85.73
56568;BME280;42456;49.956;20.004;2023-05-09T03:55:55;99314.20;;;0.98;86.17
56568;BME280;42456;49.956;20.004;2023-05-09T03:58:22;99317.70;;;1.05;86.04
56568;BME280;42456;49.956;20.004;2023-05-09T04:00:49;99316.83;;;1.13;85.41
56568;BME280;42456;49.956;20.004;2023-05-09T04:03:16;99316.48;;;1.23;86.00
56568;BME280;42456;49.956;20.004;2023-05-09T04:05:43;99312.13;;;1.32;85.95
56568;BME280;42456;49.956;20.004;2023-05-09T04:08:10;99308.35;;;1.44;85.62
56568;BME280;42456;49.956;20.004;2023-05-09T04:10:36;99305.02;;;1.56;86.25
56568;BME280;42456;49.956;20.004;2023-05-09T04:13:03;99302.19;;;1.70;85.64
56568;BME280;42456;49.956;20.004;2023-05-09T04:15:30;99303.57;;;1.87;85.98
56568;BME280;42456;49.956;20.004;2023-05-09T04:17:57;99304.77;;;2.09;86.94
56568;BME280;42456;49.956;20.004;2023-05-09T04:20:24;99303.23;;;2.34;86.59
56568;BME280;42456;49.956;20.004;2023-05-09T04:22:51;99302.62;;;2.59;86.14
56568;BME280;42456;49.956;20.004;2023-05-09T04:25:18;99301.13;;;2.89;86.68
56568;BME280;42456;49.956;20.004;2023-05-09T04:27:45;99304.14;;;3.24;86.82
56568;BME280;42456;49.956;20.004;2023-05-09T04:30:12;99301.73;;;3.65;87.20
56568;BME280;42456;49.956;20.004;2023-05-09T04:32:39;99304.66;;;4.07;86.96
56568;BME280;42456;49.956;20.004;2023-05-09T04:35:12;99306.10;;;4.52;86.08
56568;BME280;42456;49.956;20.004;2023-05-09T04:37:40;99302.26;;;4.92;86.07
56568;BME280;42456;49.956;20.004;2023-05-09T04:40:07;99303.54;;;5.33;84.94
56568;BME280;42456;49.956;20.004;2023-05-09T04:42:34;99304.04;;;5.75;84.56
56568;BME280;42456;49.956;20.004;2023-05-09T04:45:03;99297.84;;;6.17;83.74
56568;BME280;42456;49.956;20.004;2023-05-09T04:47:31;99302.64;;;6.57;82.90
56568;BME280;42456;49.956;20.004;2023-05-09T04:49:58;99301.27;;;6.96;82.25
56568;BME280;42456;49.956;20.004;2023-05-09T04:52:24;99300.05;;;7.33;80.92
56568;BME280;42456;49.956;20.004;2023-05-09T04:54:51;99303.27;;;7.67;80.14
56568;BME280;42456;49.956;20.004;2023-05-09T04:57:18;99302.87;;;8.05;79.03
56568;BME280;42456;49.956;20.004;2023-05-09T04:59:45;99303.58;;;8.39;77.55
56568;BME280;42456;49.956;20.004;2023-05-09T05:02:12;99307.67;;;8.71;76.52
56568;BME280;42456;49.956;20.004;2023-05-09T05:04:39;99308.58;;;9.05;75.86
56568;BME280;42456;49.956;20.004;2023-05-09T05:07:06;99305.93;;;9.41;75.04
56568;BME280;42456;49.956;20.004;2023-05-09T05:09:33;99306.80;;;9.77;73.85
56568;BME280;42456;49.956;20.004;2023-05-09T05:12:00;99303.90;;;10.11;72.41
56568;BME280;42456;49.956;20.004;2023-05-09T05:14:30;99300.86;;;10.40;71.13
56568;BME280;42456;49.956;20.004;2023-05-09T05:16:57;99299.75;;;10.72;70.70
56568;BME280;42456;49.956;20.004;2023-05-09T05:19:24;99302.77;;;10.99;68.21
56568;BME280;42456;49.956;20.004;2023-05-09T05:21:51;99303.80;;;11.20;67.65
56568;BME280;42456;49.956;20.004;2023-05-09T05:24:18;99303.33;;;11.50;67.19
56568;BME280;42456;49.956;20.004;2023-05-09T05:26:45;99295.70;;;11.70;65.75
56568;BME280;42456;49.956;20.004;2023-05-09T05:29:11;99295.91;;;11.93;65.36
56568;BME280;42456;49.956;20.004;2023-05-09T05:31:38;99292.00;;;12.11;64.34
56568;BME280;42456;49.956;20.004;2023-05-09T05:34:05;99288.70;;;12.31;63.94
56568;BME280;42456;49.956;20.004;2023-05-09T05:36:32;99288.70;;;12.51;63.64
56568;BME280;42456;49.956;20.004;2023-05-09T05:38:58;99288.48;;;12.77;63.12
56568;BME280;42456;49.956;20.004;2023-05-09T05:41:25;99292.54;;;13.07;61.17
56568;BME280;42456;49.956;20.004;2023-05-09T05:43:52;99297.27;;;13.58;59.37
56568;BME280;42456;49.956;20.004;2023-05-09T05:46:20;99296.73;;;14.37;58.02
56568;BME280;42456;49.956;20.004;2023-05-09T05:48:47;99293.95;;;15.61;56.00
56568;BME280;42456;49.956;20.004;2023-05-09T05:51:14;99286.64;;;17.20;54.80
56568;BME280;42456;49.956;20.004;2023-05-09T05:53:41;99288.26;;;18.54;52.57
56568;BME280;42456;49.956;20.004;2023-05-09T05:56:07;99280.34;;;19.67;49.54
56568;BME280;42456;49.956;20.004;2023-05-09T05:58:35;99281.45;;;20.63;48.27
56568;BME280;42456;49.956;20.004;2023-05-09T06:01:01;99278.39;;;21.52;47.33
56568;BME280;42456;49.956;20.004;2023-05-09T06:03:28;99281.13;;;22.34;46.73
56568;BME280;42456;49.956;20.004;2023-05-09T06:05:55;99290.52;;;22.67;43.43
56568;BME280;42456;49.956;20.004;2023-05-09T06:08:22;99284.55;;;21.83;43.41
56568;BME280;42456;49.956;20.004;2023-05-09T06:10:49;99288.70;;;20.37;42.66
56568;BME280;42456;49.956;20.004;2023-05-09T06:13:16;99287.75;;;18.87;43.18
56568;BME280;42456;49.956;20.004;2023-05-09T06:15:43;99289.84;;;17.58;44.09
56568;BME280;42456;49.956;20.004;2023-05-09T06:18:10;99285.95;;;16.44;45.68
56568;BME280;42456;49.956;20.004;2023-05-09T06:20:37;99288.58;;;15.64;47.36
56568;BME280;42456;49.956;20.004;2023-05-09T06:23:04;99283.20;;;14.97;48.37
56568;BME280;42456;49.956;20.004;2023-05-09T06:25:31;99285.30;;;14.45;50.05
56568;BME280;42456;49.956;20.004;2023-05-09T06:27:58;99288.98;;;13.97;50.68
56568;BME280;42456;49.956;20.004;2023-05-09T06:30:25;99283.36;;;13.47;51.24
56568;BME280;42456;49.956;20.004;2023-05-09T06:32:55;99277.66;;;13.04;52.31
56568;BME280;42456;49.956;20.004;2023-05-09T06:35:24;99275.34;;;12.71;53.10
56568;BME280;42456;49.956;20.004;2023-05-09T06:37:50;99281.95;;;12.49;54.20
56568;BME280;42456;49.956;20.004;2023-05-09T06:40:17;99279.62;;;12.33;55.10
56568;BME280;42456;49.956;20.004;2023-05-09T06:42:44;99280.84;;;12.22;55.55
56568;BME280;42456;49.956;20.004;2023-05-09T06:45:11;99275.19;;;12.11;55.95
56568;BME280;42456;49.956;20.004;2023-05-09T06:47:39;99269.48;;;12.05;56.72
56568;BME280;42456;49.956;20.004;2023-05-09T06:50:07;99270.23;;;12.03;57.03
56568;BME280;42456;49.956;20.004;2023-05-09T06:52:34;99272.88;;;11.97;56.66
56568;BME280;42456;49.956;20.004;2023-05-09T06:55:02;99265.99;;;11.91;57.24
56568;BME280;42456;49.956;20.004;2023-05-09T06:57:29;99266.27;;;11.95;57.39
56568;BME280;42456;49.956;20.004;2023-05-09T06:59:57;99265.89;;;11.94;57.02
56568;BME280;42456;49.956;20.004;2023-05-09T07:02:24;99260.75;;;11.89;57.38
56568;BME280;42456;49.956;20.004;2023-05-09T07:04:51;99268.07;;;11.88;57.48
56568;BME280;42456;49.956;20.004;2023-05-09T07:07:18;99262.08;;;11.77;57.29
56568;BME280;42456;49.956;20.004;2023-05-09T07:09:45;99256.34;;;11.70;57.84
56568;BME280;42456;49.956;20.004;2023-05-09T07:12:14;99256.71;;;11.68;58.26
56568;BME280;42456;49.956;20.004;2023-05-09T07:14:41;99259.77;;;11.67;58.57
56568;BME280;42456;49.956;20.004;2023-05-09T07:17:08;99256.50;;;11.60;58.49
56568;BME280;42456;49.956;20.004;2023-05-09T07:19:48;99252.34;;;11.60;58.57
56568;BME280;42456;49.956;20.004;2023-05-09T07:22:14;99240.16;;;11.62;59.19
56568;BME280;42456;49.956;20.004;2023-05-09T07:24:41;99237.87;;;11.73;59.42
56568;BME280;42456;49.956;20.004;2023-05-09T07:27:10;99234.83;;;11.84;59.14
56568;BME280;42456;49.956;20.004;2023-05-09T07:29:37;99239.56;;;11.89;58.46
56568;BME280;42456;49.956;20.004;2023-05-09T07:32:04;99233.53;;;11.86;57.87
56568;BME280;42456;49.956;20.004;2023-05-09T07:34:31;99231.93;;;11.91;58.04
56568;BME280;42456;49.956;20.004;2023-05-09T07:36:58;99236.33;;;11.99;58.67
56568;BME280;42456;49.956;20.004;2023-05-09T07:39:25;99237.17;;;12.07;58.35
56568;BME280;42456;49.956;20.004;2023-05-09T07:41:52;99235.55;;;12.09;57.76
56568;BME280;42456;49.956;20.004;2023-05-09T07:44:20;99229.28;;;12.15;57.78
56568;BME280;42456;49.956;20.004;2023-05-09T07:46:47;99235.39;;;12.27;57.98
56568;BME280;42456;49.956;20.004;2023-05-09T07:49:14;99230.85;;;12.33;56.27
56568;BME280;42456;49.956;20.004;2023-05-09T07:51:41;99219.99;;;12.35;56.93
56568;BME280;42456;49.956;20.004;2023-05-09T07:54:07;99216.09;;;12.46;57.74
56568;BME280;42456;49.956;20.004;2023-05-09T07:56:36;99231.33;;;12.54;55.94
56568;BME280;42456;49.956;20.004;2023-05-09T07:59:03;99235.43;;;12.51;54.53
56568;BME280;42456;49.956;20.004;2023-05-09T08:01:30;99217.89;;;12.43;54.65
56568;BME280;42456;49.956;20.004;2023-05-09T08:03:57;99214.25;;;12.42;55.72
56568;BME280;42456;49.956;20.004;2023-05-09T08:06:24;99209.76;;;12.42;55.45
56568;BME280;42456;49.956;20.004;2023-05-09T08:08:52;99210.09;;;12.43;55.26
56568;BME280;42456;49.956;20.004;2023-05-09T08:11:19;99211.52;;;12.47;55.42
56568;BME280;42456;49.956;20.004;2023-05-09T08:13:45;99220.58;;;12.46;54.47
56568;BME280;42456;49.956;20.004;2023-05-09T08:16:13;99211.94;;;12.39;53.84
56568;BME280;42456;49.956;20.004;2023-05-09T08:18:43;99202.06;;;12.36;54.53
56568;BME280;42456;49.956;20.004;2023-05-09T08:21:10;99203.81;;;12.37;54.11
56568;BME280;42456;49.956;20.004;2023-05-09T08:23:37;99199.24;;;12.37;54.13
56568;BME280;42456;49.956;20.004;2023-05-09T08:26:06;99186.39;;;12.39;54.91
56568;BME280;42456;49.956;20.004;2023-05-09T08:28:33;99184.66;;;12.47;55.62
56568;BME280;42456;49.956;20.004;2023-05-09T08:30:59;99202.91;;;12.55;55.50
56568;BME280;42456;49.956;20.004;2023-05-09T08:33:26;99205.42;;;12.56;54.24
56568;BME280;42456;49.956;20.004;2023-05-09T08:35:53;99198.44;;;12.57;53.93
56568;BME280;42456;49.956;20.004;2023-05-09T08:38:22;99200.95;;;12.56;53.34
56568;BME280;42456;49.956;20.004;2023-05-09T08:40:49;99191.36;;;12.52;53.35
56568;BME280;42456;49.956;20.004;2023-05-09T08:43:17;99186.50;;;12.52;53.19
56568;BME280;42456;49.956;20.004;2023-05-09T08:45:49;99194.10;;;12.51;53.72
56568;BME280;42456;49.956;20.004;2023-05-09T08:48:17;99190.80;;;12.51;53.46
56568;BME280;42456;49.956;20.004;2023-05-09T08:50:44;99189.57;;;12.51;53.73
56568;BME280;42456;49.956;20.004;2023-05-09T08:53:12;99175.84;;;12.57;54.06
56568;BME280;42456;49.956;20.004;2023-05-09T08:55:40;99182.76;;;12.63;53.22
56568;BME280;42456;49.956;20.004;2023-05-09T08:58:08;99172.27;;;12.65;52.94
56568;BME280;42456;49.956;20.004;2023-05-09T09:00:36;99184.77;;;12.72;53.65
56568;BME280;42456;49.956;20.004;2023-05-09T09:03:06;99174.45;;;12.76;52.89
56568;BME280;42456;49.956;20.004;2023-05-09T09:05:36;99177.42;;;12.79;52.14
56568;BME280;42456;49.956;20.004;2023-05-09T09:08:08;99180.94;;;12.81;52.53
56568;BME280;42456;49.956;20.004;2023-05-09T09:10:39;99176.64;;;12.85;52.18
56568;BME280;42456;49.956;20.004;2023-05-09T09:13:09;99181.45;;;12.92;51.99
56568;BME280;42456;49.956;20.004;2023-05-09T09:15:37;99177.98;;;12.93;52.00
56568;BME280;42456;49.956;20.004;2023-05-09T09:18:11;99172.03;;;12.95;52.43
56568;BME280;42456;49.956;20.004;2023-05-09T09:20:46;99161.17;;;12.97;52.46
56568;BME280;42456;49.956;20.004;2023-05-09T09:23:18;99155.98;;;12.96;51.83
56568;BME280;42456;49.956;20.004;2023-05-09T09:25:46;99155.98;;;13.03;52.21
56568;BME280;42456;49.956;20.004;2023-05-09T09:28:14;99157.27;;;13.08;52.15
56568;BME280;42456;49.956;20.004;2023-05-09T09:30:46;99173.08;;;13.02;51.49
56568;BME280;42456;49.956;20.004;2023-05-09T09:33:25;99160.08;;;12.93;51.83
56568;BME280;42456;49.956;20.004;2023-05-09T09:35:54;99162.21;;;12.91;51.40
56568;BME280;42456;49.956;20.004;2023-05-09T09:38:22;99147.98;;;12.88;51.94
56568;BME280;42456;49.956;20.004;2023-05-09T09:40:56;99154.33;;;12.90;51.98
56568;BME280;42456;49.956;20.004;2023-05-09T09:43:28;99147.83;;;12.94;51.92
56568;BME280;42456;49.956;20.004;2023-05-09T09:45:56;99149.08;;;13.04;52.12
56568;BME280;42456;49.956;20.004;2023-05-09T09:48:30;99145.66;;;13.15;52.01
56568;BME280;42456;49.956;20.004;2023-05-09T09:51:09;99144.48;;;13.28;52.09
56568;BME280;42456;49.956;20.004;2023-05-09T09:53:40;99144.25;;;13.41;51.96
56568;BME280;42456;49.956;20.004;2023-05-09T09:56:08;99151.52;;;13.45;51.51
56568;BME280;42456;49.956;20.004;2023-05-09T09:58:35;99143.86;;;13.45;51.02
56568;BME280;42456;49.956;20.004;2023-05-09T10:01:10;99140.44;;;13.46;50.87
56568;BME280;42456;49.956;20.004;2023-05-09T10:03:44;99126.67;;;13.61;51.53
56568;BME280;42456;49.956;20.004;2023-05-09T10:06:15;99127.11;;;13.78;52.06
56568;BME280;42456;49.956;20.004;2023-05-09T10:08:43;99135.85;;;13.93;51.70
56568;BME280;42456;49.956;20.004;2023-05-09T10:11:14;99136.02;;;14.08;51.03
56568;BME280;42456;49.956;20.004;2023-05-09T10:13:42;99135.18;;;14.18;50.55
56568;BME280;42456;49.956;20.004;2023-05-09T10:16:10;99134.80;;;14.22;49.62
56568;BME280;42456;49.956;20.004;2023-05-09T10:18:38;99132.52;;;14.17;49.39
56568;BME280;42456;49.956;20.004;2023-05-09T10:21:10;99127.41;;;14.07;49.25
56568;BME280;42456;49.956;20.004;2023-05-09T10:23:42;99131.80;;;14.06;49.92
56568;BME280;42456;49.956;20.004;2023-05-09T10:26:17;99129.65;;;14.13;49.66
56568;BME280;42456;49.956;20.004;2023-05-09T10:28:48;99137.10;;;14.12;49.20
56568;BME280;42456;49.956;20.004;2023-05-09T10:31:27;99133.50;;;14.10;49.11
56568;BME280;42456;49.956;20.004;2023-05-09T10:33:55;99125.61;;;14.08;48.91
56568;BME280;42456;49.956;20.004;2023-05-09T10:36:22;99129.23;;;14.04;48.73
56568;BME280;42456;49.956;20.004;2023-05-09T10:38:52;99126.99;;;14.00;48.89
56568;BME280;42456;49.956;20.004;2023-05-09T10:41:21;99120.08;;;13.99;48.21
56568;BME280;42456;49.956;20.004;2023-05-09T10:43:48;99124.61;;;13.98;47.92
56568;BME280;42456;49.956;20.004;2023-05-09T10:46:15;99117.31;;;13.99;48.11
56568;BME280;42456;49.956;20.004;2023-05-09T10:48:43;99106.68;;;14.04;47.72
56568;BME280;42456;49.956;20.004;2023-05-09T10:51:11;99109.03;;;14.09;47.76
56568;BME280;42456;49.956;20.004;2023-05-09T10:53:45;99100.23;;;14.05;47.53
56568;BME280;42456;49.956;20.004;2023-05-09T10:56:33;99103.43;;;14.06;47.01
56568;BME280;42456;49.956;20.004;2023-05-09T10:59:05;99100.30;;;14.05;47.58
56568;BME280;42456;49.956;20.004;2023-05-09T11:01:37;99103.33;;;14.05;47.40
56568;BME280;42456;49.956;20.004;2023-05-09T11:04:10;99098.34;;;14.08;47.71
56568;BME280;42456;49.956;20.004;2023-05-09T11:06:44;99098.60;;;14.15;47.66
56568;BME280;42456;49.956;20.004;2023-05-09T11:09:31;99098.86;;;14.18;46.76
56568;BME280;42456;49.956;20.004;2023-05-09T11:14:31;99085.80;;;14.34;48.40
56568;BME280;42456;49.956;20.004;2023-05-09T11:16:59;99087.09;;;14.42;47.71
56568;BME280;42456;49.956;20.004;2023-05-09T11:19:36;99074.27;;;14.50;47.53
56568;BME280;42456;49.956;20.004;2023-05-09T11:22:11;99065.61;;;14.57;47.55
56568;BME280;42456;49.956;20.004;2023-05-09T11:24:41;99063.42;;;14.65;47.46
56568;BME280;42456;49.956;20.004;2023-05-09T11:29:57;99064.50;;;14.88;46.64
56568;BME280;42456;49.956;20.004;2023-05-09T11:32:29;99061.79;;;14.97;46.06
56568;BME280;42456;49.956;20.004;2023-05-09T11:35:07;99064.52;;;15.08;46.21
56568;BME280;42456;49.956;20.004;2023-05-09T11:40:16;99061.15;;;15.21;45.43
56568;BME280;42456;49.956;20.004;2023-05-09T11:42:45;99060.12;;;15.18;44.84
56568;BME280;42456;49.956;20.004;2023-05-09T11:45:12;99056.77;;;15.12;45.26
56568;BME280;42456;49.956;20.004;2023-05-09T11:47:40;99056.36;;;15.09;44.63
56568;BME280;42456;49.956;20.004;2023-05-09T11:50:07;99043.16;;;15.03;44.97
56568;BME280;42456;49.956;20.004;2023-05-09T11:52:35;99050.86;;;14.99;45.40
56568;BME280;42456;49.956;20.004;2023-05-09T11:55:10;99051.29;;;14.91;44.08
56568;BME280;42456;49.956;20.004;2023-05-09T11:57:39;99035.33;;;14.86;44.38
56568;BME280;42456;49.956;20.004;2023-05-09T12:00:06;99034.54;;;14.94;44.83
56568;BME280;42456;49.956;20.004;2023-05-09T12:02:37;99023.95;;;15.05;44.95
56568;BME280;42456;49.956;20.004;2023-05-09T12:05:11;99016.14;;;15.17;45.49
56568;BME280;42456;49.956;20.004;2023-05-09T12:07:39;99030.16;;;15.23;44.87
56568;BME280;42456;49.956;20.004;2023-05-09T12:12:41;99013.49;;;15.17;44.47
56568;BME280;42456;49.956;20.004;2023-05-09T12:15:08;99011.80;;;15.15;44.42
56568;BME280;42456;49.956;20.004;2023-05-09T12:17:35;99015.55;;;15.06;43.90
56568;BME280;42456;49.956;20.004;2023-05-09T12:20:02;99024.70;;;14.94;44.12
56568;BME280;42456;49.956;20.004;2023-05-09T12:22:31;99009.85;;;14.83;43.75
56568;BME280;42456;49.956;20.004;2023-05-09T12:24:59;99010.48;;;14.81;44.13
56568;BME280;42456;49.956;20.004;2023-05-09T12:27:27;98998.34;;;14.81;44.58
56568;BME280;42456;49.956;20.004;2023-05-09T12:29:54;98999.59;;;14.90;44.70
56568;BME280;42456;49.956;20.004;2023-05-09T12:32:21;99004.59;;;15.04;43.57
56568;BME280;42456;49.956;20.004;2023-05-09T12:34:48;99003.77;;;15.05;42.62
56568;BME280;42456;49.956;20.004;2023-05-09T12:37:17;98987.41;;;15.04;43.72
56568;BME280;42456;49.956;20.004;2023-05-09T12:40:08;98993.23;;;15.05;43.89
56568;BME280;42456;49.956;20.004;2023-05-09T12:42:32;98995.11;;;15.01;43.08
56568;BME280;42456;49.956;20.004;2023-05-09T12:45:00;98982.30;;;14.97;43.43
56568;BME280;42456;49.956;20.004;2023-05-09T12:47:27;98986.63;;;14.94;43.13
56568;BME280;42456;49.956;20.004;2023-05-09T12:49:58;98989.38;;;14.96;43.23
56568;BME280;42456;49.956;20.004;2023-05-09T12:52:31;98987.48;;;14.94;42.88
56568;BME280;42456;49.956;20.004;2023-05-09T12:55:03;98978.17;;;14.91;42.50
56568;BME280;42456;49.956;20.004;2023-05-09T12:57:31;98981.41;;;14.88;42.63
56568;BME280;42456;49.956;20.004;2023-05-09T12:59:58;98974.45;;;14.91;42.18
56568;BME280;42456;49.956;20.004;2023-05-09T13:02:25;98968.63;;;14.98;43.08
56568;BME280;42456;49.956;20.004;2023-05-09T13:05:18;98970.80;;;15.11;42.71
56568;BME280;42456;49.956;20.004;2023-05-09T13:07:43;98966.64;;;15.26;42.98
56568;BME280;42456;49.956;20.004;2023-05-09T13:10:45;98970.02;;;15.31;42.08
56568;BME280;42456;49.956;20.004;2023-05-09T13:13:04;98966.50;;;15.35;42.40
56568;BME280;42456;49.956;20.004;2023-05-09T13:15:30;98970.30;;;15.33;41.78
56568;BME280;42456;49.956;20.004;2023-05-09T13:17:59;98959.31;;;15.25;41.89